sensor_id;sensor_type;location;lat;lon;timestamp;P1;durP1;ratioP1;P2;durP2;ratioP2
58196;SDS011;43999;51.660;5.616;2023-04-01T00:01:14;10.68;;;5.38;;
58196;SDS011;43999;51.660;5.616;2023-04-01T00:03:43;8.05;;;3.65;;
58196;SDS011;43999;51.660;5.616;2023-04-01T00:06:15;6.50;;;4.00;;
58196;SDS011;43999;51.660;5.616;2023-04-01T00:08:44;6.85;;;4.05;;
58196;SDS011;43999;51.660;5.616;2023-04-01T00:11:13;6.32;;;4.35;;
58196;SDS011;43999;51.660;5.616;2023-04-01T00:13:46;6.68;;;3.03;;
58196;SDS011;43999;51.660;5.616;2023-04-01T00:16:14;9.23;;;3.50;;
58196;SDS011;43999;51.660;5.616;2023-04-01T00:18:46;7.85;;;3.70;;
58196;SDS011;43999;51.660;5.616;2023-04-01T00:21:15;6.28;;;4.13;;
58196;SDS011;43999;51.660;5.616;2023-04-01T00:23:45;6.38;;;3.20;;
58196;SDS011;43999;51.660;5.616;2023-04-01T00:26:12;6.28;;;3.28;;
58196;SDS011;43999;51.660;5.616;2023-04-01T00:28:41;5.55;;;4.32;;
58196;SDS011;43999;51.660;5.616;2023-04-01T00:31:08;6.38;;;4.35;;
58196;SDS011;43999;51.660;5.616;2023-04-01T00:33:38;5.53;;;4.05;;
58196;SDS011;43999;51.660;5.616;2023-04-01T00:36:08;6.40;;;4.05;;
58196;SDS011;43999;51.660;5.616;2023-04-01T00:38:56;7.90;;;3.92;;
58196;SDS011;43999;51.660;5.616;2023-04-01T00:41:27;8.55;;;4.57;;
58196;SDS011;43999;51.660;5.616;2023-04-01T00:44:11;6.38;;;3.92;;
58196;SDS011;43999;51.660;5.616;2023-04-01T00:46:52;8.10;;;5.32;;
58196;SDS011;43999;51.660;5.616;2023-04-01T00:49:21;7.90;;;5.00;;
58196;SDS011;43999;51.660;5.616;2023-04-01T00:51:56;8.05;;;5.32;;
58196;SDS011;43999;51.660;5.616;2023-04-01T00:54:30;6.90;;;6.20;;
58196;SDS011;43999;51.660;5.616;2023-04-01T00:57:03;10.82;;;6.00;;
58196;SDS011;43999;51.660;5.616;2023-04-01T00:59:52;7.43;;;6.55;;
58196;SDS011;43999;51.660;5.616;2023-04-01T01:02:22;8.60;;;7.70;;
58196;SDS011;43999;51.660;5.616;2023-04-01T01:04:51;7.22;;;6.18;;
58196;SDS011;43999;51.660;5.616;2023-04-01T01:10:48;10.38;;;7.15;;
58196;SDS011;43999;51.660;5.616;2023-04-01T01:13:22;9.57;;;7.75;;
58196;SDS011;43999;51.660;5.616;2023-04-01T01:29:42;12.40;;;11.10;;
58196;SDS011;43999;51.660;5.616;2023-04-01T01:35:34;12.05;;;10.43;;
58196;SDS011;43999;51.660;5.616;2023-04-01T01:38:27;10.25;;;9.10;;
58196;SDS011;43999;51.660;5.616;2023-04-01T01:41:02;13.05;;;10.30;;
58196;SDS011;43999;51.660;5.616;2023-04-01T01:43:41;13.88;;;11.65;;
58196;SDS011;43999;51.660;5.616;2023-04-01T01:46:17;14.13;;;11.82;;
58196;SDS011;43999;51.660;5.616;2023-04-01T01:48:49;13.05;;;11.02;;
58196;SDS011;43999;51.660;5.616;2023-04-01T01:51:21;13.43;;;11.75;;
58196;SDS011;43999;51.660;5.616;2023-04-01T01:53:49;13.30;;;10.80;;
58196;SDS011;43999;51.660;5.616;2023-04-01T01:56:19;12.73;;;10.65;;
58196;SDS011;43999;51.660;5.616;2023-04-01T01:58:58;13.43;;;11.95;;
58196;SDS011;43999;51.660;5.616;2023-04-01T02:01:39;11.90;;;9.88;;
58196;SDS011;43999;51.660;5.616;2023-04-01T02:04:15;14.15;;;10.38;;
58196;SDS011;43999;51.660;5.616;2023-04-01T02:06:50;12.07;;;10.68;;
58196;SDS011;43999;51.660;5.616;2023-04-01T02:09:29;13.70;;;10.82;;
58196;SDS011;43999;51.660;5.616;2023-04-01T02:11:58;8.95;;;8.05;;
58196;SDS011;43999;51.660;5.616;2023-04-01T02:14:39;10.05;;;7.65;;
58196;SDS011;43999;51.660;5.616;2023-04-01T02:17:38;10.10;;;8.15;;
58196;SDS011;43999;51.660;5.616;2023-04-01T02:20:22;11.27;;;9.45;;
58196;SDS011;43999;51.660;5.616;2023-04-01T02:22:52;10.15;;;8.48;;
58196;SDS011;43999;51.660;5.616;2023-04-01T02:25:30;10.90;;;9.52;;
58196;SDS011;43999;51.660;5.616;2023-04-01T02:28:05;10.80;;;9.73;;
58196;SDS011;43999;51.660;5.616;2023-04-01T02:30:38;9.38;;;7.57;;
58196;SDS011;43999;51.660;5.616;2023-04-01T02:33:09;8.38;;;6.22;;
58196;SDS011;43999;51.660;5.616;2023-04-01T02:35:38;9.07;;;6.25;;
58196;SDS011;43999;51.660;5.616;2023-04-01T02:38:07;14.00;;;8.43;;
58196;SDS011;43999;51.660;5.616;2023-04-01T02:40:49;11.93;;;10.02;;
58196;SDS011;43999;51.660;5.616;2023-04-01T02:43:24;11.30;;;9.95;;
58196;SDS011;43999;51.660;5.616;2023-04-01T02:45:53;11.23;;;10.00;;
58196;SDS011;43999;51.660;5.616;2023-04-01T02:48:20;9.48;;;8.13;;
58196;SDS011;43999;51.660;5.616;2023-04-01T02:50:48;8.50;;;6.93;;
58196;SDS011;43999;51.660;5.616;2023-04-01T02:53:16;7.95;;;6.65;;
58196;SDS011;43999;51.660;5.616;2023-04-01T02:55:46;7.47;;;6.63;;
58196;SDS011;43999;51.660;5.616;2023-04-01T02:58:16;6.40;;;5.18;;
58196;SDS011;43999;51.660;5.616;2023-04-01T03:00:44;6.40;;;5.65;;
58196;SDS011;43999;51.660;5.616;2023-04-01T03:03:12;8.07;;;5.70;;
58196;SDS011;43999;51.660;5.616;2023-04-01T03:05:40;7.38;;;5.20;;
58196;SDS011;43999;51.660;5.616;2023-04-01T03:08:07;9.35;;;6.03;;
58196;SDS011;43999;51.660;5.616;2023-04-01T03:10:36;9.07;;;7.07;;
58196;SDS011;43999;51.660;5.616;2023-04-01T03:13:04;9.82;;;7.18;;
58196;SDS011;43999;51.660;5.616;2023-04-01T03:15:33;8.57;;;6.97;;
58196;SDS011;43999;51.660;5.616;2023-04-01T03:18:02;9.40;;;6.25;;
58196;SDS011;43999;51.660;5.616;2023-04-01T03:20:30;7.15;;;6.35;;
58196;SDS011;43999;51.660;5.616;2023-04-01T03:22:57;8.32;;;6.68;;
58196;SDS011;43999;51.660;5.616;2023-04-01T03:25:26;7.25;;;6.47;;
58196;SDS011;43999;51.660;5.616;2023-04-01T03:27:55;10.07;;;7.68;;
58196;SDS011;43999;51.660;5.616;2023-04-01T03:30:25;10.15;;;8.27;;
58196;SDS011;43999;51.660;5.616;2023-04-01T03:32:57;12.07;;;10.02;;
58196;SDS011;43999;51.660;5.616;2023-04-01T03:35:26;11.45;;;9.98;;
58196;SDS011;43999;51.660;5.616;2023-04-01T03:37:54;16.10;;;10.85;;
58196;SDS011;43999;51.660;5.616;2023-04-01T03:40:23;12.95;;;9.85;;
58196;SDS011;43999;51.660;5.616;2023-04-01T03:42:53;16.88;;;12.85;;
58196;SDS011;43999;51.660;5.616;2023-04-01T03:45:22;15.05;;;11.57;;
58196;SDS011;43999;51.660;5.616;2023-04-01T03:47:50;14.95;;;12.30;;
58196;SDS011;43999;51.660;5.616;2023-04-01T03:50:19;14.02;;;10.30;;
58196;SDS011;43999;51.660;5.616;2023-04-01T03:52:46;13.20;;;11.15;;
58196;SDS011;43999;51.660;5.616;2023-04-01T03:55:15;14.52;;;12.02;;
58196;SDS011;43999;51.660;5.616;2023-04-01T03:57:43;13.75;;;9.60;;
58196;SDS011;43999;51.660;5.616;2023-04-01T04:00:16;14.43;;;11.73;;
58196;SDS011;43999;51.660;5.616;2023-04-01T04:02:50;17.75;;;10.80;;
58196;SDS011;43999;51.660;5.616;2023-04-01T04:05:23;11.52;;;9.98;;
58196;SDS011;43999;51.660;5.616;2023-04-01T04:07:54;12.75;;;11.45;;
58196;SDS011;43999;51.660;5.616;2023-04-01T04:10:23;11.50;;;8.93;;
58196;SDS011;43999;51.660;5.616;2023-04-01T04:12:52;9.10;;;7.82;;
58196;SDS011;43999;51.660;5.616;2023-04-01T04:15:21;8.77;;;7.78;;
58196;SDS011;43999;51.660;5.616;2023-04-01T04:17:50;9.38;;;7.53;;
58196;SDS011;43999;51.660;5.616;2023-04-01T04:20:17;7.25;;;6.45;;
58196;SDS011;43999;51.660;5.616;2023-04-01T04:22:45;9.25;;;6.35;;
58196;SDS011;43999;51.660;5.616;2023-04-01T04:25:14;8.02;;;5.90;;
58196;SDS011;43999;51.660;5.616;2023-04-01T04:27:43;8.60;;;6.95;;
58196;SDS011;43999;51.660;5.616;2023-04-01T04:30:12;8.90;;;7.25;;
58196;SDS011;43999;51.660;5.616;2023-04-01T04:32:40;9.38;;;8.38;;
58196;SDS011;43999;51.660;5.616;2023-04-01T04:35:10;8.27;;;6.78;;
58196;SDS011;43999;51.660;5.616;2023-04-01T04:37:40;9.05;;;6.70;;
58196;SDS011;43999;51.660;5.616;2023-04-01T04:40:07;8.38;;;7.43;;
58196;SDS011;43999;51.660;5.616;2023-04-01T04:42:35;8.48;;;7.13;;
58196;SDS011;43999;51.660;5.616;2023-04-01T04:45:08;7.65;;;6.80;;
58196;SDS011;43999;51.660;5.616;2023-04-01T04:47:50;8.02;;;6.45;;
58196;SDS011;43999;51.660;5.616;2023-04-01T04:50:17;7.95;;;7.15;;
58196;SDS011;43999;51.660;5.616;2023-04-01T04:52:47;7.30;;;6.53;;
58196;SDS011;43999;51.660;5.616;2023-04-01T04:55:14;8.77;;;7.00;;
58196;SDS011;43999;51.660;5.616;2023-04-01T04:57:45;10.43;;;7.28;;
58196;SDS011;43999;51.660;5.616;2023-04-01T05:00:13;9.90;;;6.95;;
58196;SDS011;43999;51.660;5.616;2023-04-01T05:02:48;9.75;;;8.13;;
58196;SDS011;43999;51.660;5.616;2023-04-01T05:05:16;10.20;;;8.68;;
58196;SDS011;43999;51.660;5.616;2023-04-01T05:07:45;11.05;;;8.55;;
58196;SDS011;43999;51.660;5.616;2023-04-01T05:10:12;10.40;;;9.38;;
58196;SDS011;43999;51.660;5.616;2023-04-01T05:12:40;12.20;;;9.57;;
58196;SDS011;43999;51.660;5.616;2023-04-01T05:15:09;11.30;;;9.80;;
58196;SDS011;43999;51.660;5.616;2023-04-01T05:17:38;11.82;;;10.57;;
58196;SDS011;43999;51.660;5.616;2023-04-01T05:20:11;11.50;;;10.30;;
58196;SDS011;43999;51.660;5.616;2023-04-01T05:22:44;13.52;;;9.88;;
58196;SDS011;43999;51.660;5.616;2023-04-01T05:25:12;14.63;;;11.95;;
58196;SDS011;43999;51.660;5.616;2023-04-01T05:27:40;15.27;;;12.13;;
58196;SDS011;43999;51.660;5.616;2023-04-01T05:30:08;15.80;;;13.60;;
58196;SDS011;43999;51.660;5.616;2023-04-01T05:32:44;15.98;;;12.10;;
58196;SDS011;43999;51.660;5.616;2023-04-01T05:35:12;15.82;;;11.52;;
58196;SDS011;43999;51.660;5.616;2023-04-01T05:37:40;12.88;;;10.80;;
58196;SDS011;43999;51.660;5.616;2023-04-01T05:40:11;15.85;;;13.35;;
58196;SDS011;43999;51.660;5.616;2023-04-01T05:42:40;13.93;;;12.07;;
58196;SDS011;43999;51.660;5.616;2023-04-01T05:45:14;13.65;;;11.27;;
58196;SDS011;43999;51.660;5.616;2023-04-01T05:47:48;15.27;;;11.90;;
58196;SDS011;43999;51.660;5.616;2023-04-01T05:50:16;17.52;;;13.13;;
58196;SDS011;43999;51.660;5.616;2023-04-01T05:52:44;17.08;;;14.90;;
58196;SDS011;43999;51.660;5.616;2023-04-01T05:55:15;17.50;;;13.80;;
58196;SDS011;43999;51.660;5.616;2023-04-01T05:57:44;20.13;;;14.07;;
58196;SDS011;43999;51.660;5.616;2023-04-01T06:00:15;20.48;;;18.23;;
58196;SDS011;43999;51.660;5.616;2023-04-01T06:02:44;25.33;;;19.38;;
58196;SDS011;43999;51.660;5.616;2023-04-01T06:05:20;23.60;;;18.40;;
58196;SDS011;43999;51.660;5.616;2023-04-01T06:07:55;23.70;;;19.45;;
58196;SDS011;43999;51.660;5.616;2023-04-01T06:14:07;28.23;;;21.50;;
58196;SDS011;43999;51.660;5.616;2023-04-01T06:20:20;28.73;;;22.95;;
58196;SDS011;43999;51.660;5.616;2023-04-01T06:26:43;30.77;;;23.50;;
58196;SDS011;43999;51.660;5.616;2023-04-01T06:30:07;38.30;;;25.05;;
58196;SDS011;43999;51.660;5.616;2023-04-01T06:33:18;34.08;;;22.73;;
58196;SDS011;43999;51.660;5.616;2023-04-01T06:46:57;23.02;;;17.25;;
58196;SDS011;43999;51.660;5.616;2023-04-01T07:00:13;26.40;;;17.55;;
58196;SDS011;43999;51.660;5.616;2023-04-01T07:02:55;27.17;;;18.77;;
58196;SDS011;43999;51.660;5.616;2023-04-01T07:05:50;28.50;;;20.27;;
58196;SDS011;43999;51.660;5.616;2023-04-01T07:08:24;29.38;;;19.42;;
58196;SDS011;43999;51.660;5.616;2023-04-01T07:13:51;28.48;;;21.60;;
58196;SDS011;43999;51.660;5.616;2023-04-01T07:22:19;34.78;;;22.83;;
58196;SDS011;43999;51.660;5.616;2023-04-01T07:25:17;28.50;;;21.20;;
58196;SDS011;43999;51.660;5.616;2023-04-01T07:28:16;28.95;;;19.23;;
58196;SDS011;43999;51.660;5.616;2023-04-01T07:34:19;31.50;;;23.02;;
58196;SDS011;43999;51.660;5.616;2023-04-01T07:37:38;30.15;;;20.58;;
58196;SDS011;43999;51.660;5.616;2023-04-01T07:43:49;25.00;;;16.67;;
58196;SDS011;43999;51.660;5.616;2023-04-01T07:47:09;22.63;;;16.73;;
58196;SDS011;43999;51.660;5.616;2023-04-01T07:59:41;23.83;;;17.73;;
58196;SDS011;43999;51.660;5.616;2023-04-01T08:03:26;23.08;;;17.25;;
58196;SDS011;43999;51.660;5.616;2023-04-01T08:07:03;25.52;;;18.45;;
58196;SDS011;43999;51.660;5.616;2023-04-01T08:10:31;25.98;;;18.70;;
58196;SDS011;43999;51.660;5.616;2023-04-01T08:14:21;23.45;;;17.67;;
58196;SDS011;43999;51.660;5.616;2023-04-01T08:17:28;33.70;;;24.33;;
58196;SDS011;43999;51.660;5.616;2023-04-01T08:20:28;31.33;;;22.08;;
58196;SDS011;43999;51.660;5.616;2023-04-01T08:23:36;28.00;;;19.10;;
58196;SDS011;43999;51.660;5.616;2023-04-01T08:29:14;31.50;;;21.48;;
58196;SDS011;43999;51.660;5.616;2023-04-01T08:38:10;33.22;;;21.42;;
58196;SDS011;43999;51.660;5.616;2023-04-01T08:52:17;29.25;;;20.83;;
58196;SDS011;43999;51.660;5.616;2023-04-01T09:08:33;35.40;;;21.17;;
58196;SDS011;43999;51.660;5.616;2023-04-01T09:11:42;26.45;;;20.67;;
58196;SDS011;43999;51.660;5.616;2023-04-01T09:27:04;31.58;;;22.20;;
58196;SDS011;43999;51.660;5.616;2023-04-01T09:44:30;28.65;;;20.77;;
58196;SDS011;43999;51.660;5.616;2023-04-01T10:09:06;24.70;;;18.55;;
58196;SDS011;43999;51.660;5.616;2023-04-01T10:14:51;21.63;;;18.02;;
58196;SDS011;43999;51.660;5.616;2023-04-01T10:21:22;22.17;;;16.33;;
58196;SDS011;43999;51.660;5.616;2023-04-01T10:27:40;17.20;;;13.90;;
58196;SDS011;43999;51.660;5.616;2023-04-01T10:31:02;23.15;;;16.63;;
58196;SDS011;43999;51.660;5.616;2023-04-01T10:34:14;22.25;;;17.77;;
58196;SDS011;43999;51.660;5.616;2023-04-01T10:37:21;21.25;;;14.95;;
58196;SDS011;43999;51.660;5.616;2023-04-01T10:53:32;16.75;;;14.10;;
58196;SDS011;43999;51.660;5.616;2023-04-01T10:56:39;17.48;;;13.55;;
58196;SDS011;43999;51.660;5.616;2023-04-01T11:22:37;14.02;;;10.32;;
58196;SDS011;43999;51.660;5.616;2023-04-01T11:31:54;13.60;;;11.63;;
58196;SDS011;43999;51.660;5.616;2023-04-01T11:38:44;18.67;;;14.02;;
58196;SDS011;43999;51.660;5.616;2023-04-01T11:42:40;17.20;;;13.23;;
58196;SDS011;43999;51.660;5.616;2023-04-01T11:46:19;15.65;;;12.73;;
58196;SDS011;43999;51.660;5.616;2023-04-01T11:56:58;17.35;;;13.48;;
58196;SDS011;43999;51.660;5.616;2023-04-01T11:59:55;16.65;;;12.88;;
58196;SDS011;43999;51.660;5.616;2023-04-01T12:13:02;12.70;;;9.88;;
58196;SDS011;43999;51.660;5.616;2023-04-01T12:15:58;13.00;;;10.32;;
58196;SDS011;43999;51.660;5.616;2023-04-01T12:18:49;9.93;;;7.60;;
58196;SDS011;43999;51.660;5.616;2023-04-01T12:31:42;10.53;;;8.37;;
58196;SDS011;43999;51.660;5.616;2023-04-01T12:34:57;12.57;;;8.82;;
58196;SDS011;43999;51.660;5.616;2023-04-01T12:44:23;17.52;;;10.05;;
58196;SDS011;43999;51.660;5.616;2023-04-01T12:47:21;11.73;;;10.52;;
58196;SDS011;43999;51.660;5.616;2023-04-01T12:57:45;11.35;;;10.10;;
58196;SDS011;43999;51.660;5.616;2023-04-01T13:00:24;12.98;;;11.68;;
58196;SDS011;43999;51.660;5.616;2023-04-01T13:07:43;13.63;;;10.00;;
58196;SDS011;43999;51.660;5.616;2023-04-01T13:10:52;14.25;;;10.63;;
58196;SDS011;43999;51.660;5.616;2023-04-01T13:17:52;12.73;;;11.18;;
58196;SDS011;43999;51.660;5.616;2023-04-01T13:28:40;8.57;;;7.30;;
58196;SDS011;43999;51.660;5.616;2023-04-01T13:32:05;9.95;;;8.45;;
58196;SDS011;43999;51.660;5.616;2023-04-01T14:00:03;11.38;;;9.68;;
58196;SDS011;43999;51.660;5.616;2023-04-01T14:19:21;14.50;;;12.00;;
58196;SDS011;43999;51.660;5.616;2023-04-01T14:22:39;16.20;;;12.80;;
58196;SDS011;43999;51.660;5.616;2023-04-01T14:32:11;17.70;;;13.70;;
58196;SDS011;43999;51.660;5.616;2023-04-01T14:35:37;14.68;;;11.95;;
58196;SDS011;43999;51.660;5.616;2023-04-01T14:45:02;16.08;;;12.80;;
58196;SDS011;43999;51.660;5.616;2023-04-01T14:51:16;17.85;;;13.10;;
58196;SDS011;43999;51.660;5.616;2023-04-01T14:57:10;16.63;;;13.40;;
58196;SDS011;43999;51.660;5.616;2023-04-01T15:00:09;14.18;;;12.70;;
58196;SDS011;43999;51.660;5.616;2023-04-01T15:09:24;20.23;;;15.30;;
58196;SDS011;43999;51.660;5.616;2023-04-01T15:16:08;18.25;;;14.32;;
58196;SDS011;43999;51.660;5.616;2023-04-01T15:22:40;21.90;;;18.98;;
58196;SDS011;43999;51.660;5.616;2023-04-01T15:25:45;18.38;;;15.45;;
58196;SDS011;43999;51.660;5.616;2023-04-01T15:32:37;20.08;;;16.08;;
58196;SDS011;43999;51.660;5.616;2023-04-01T15:39:36;22.10;;;16.85;;
58196;SDS011;43999;51.660;5.616;2023-04-01T15:52:22;19.13;;;14.00;;
58196;SDS011;43999;51.660;5.616;2023-04-01T15:55:46;16.45;;;13.10;;
58196;SDS011;43999;51.660;5.616;2023-04-01T15:58:41;20.63;;;15.13;;
58196;SDS011;43999;51.660;5.616;2023-04-01T16:23:51;20.38;;;13.27;;
58196;SDS011;43999;51.660;5.616;2023-04-01T16:32:51;15.15;;;12.05;;
58196;SDS011;43999;51.660;5.616;2023-04-01T16:35:31;19.23;;;15.13;;
58196;SDS011;43999;51.660;5.616;2023-04-01T16:38:43;17.02;;;13.40;;
58196;SDS011;43999;51.660;5.616;2023-04-01T16:42:09;19.75;;;14.63;;
58196;SDS011;43999;51.660;5.616;2023-04-01T16:51:53;9.68;;;8.15;;
58196;SDS011;43999;51.660;5.616;2023-04-01T17:01:40;10.85;;;8.25;;
58196;SDS011;43999;51.660;5.616;2023-04-01T17:10:51;9.10;;;6.47;;
58196;SDS011;43999;51.660;5.616;2023-04-01T17:19:34;5.97;;;4.90;;
58196;SDS011;43999;51.660;5.616;2023-04-01T17:22:39;8.02;;;5.57;;
58196;SDS011;43999;51.660;5.616;2023-04-01T17:31:50;7.78;;;6.15;;
58196;SDS011;43999;51.660;5.616;2023-04-01T17:38:39;6.78;;;5.45;;
58196;SDS011;43999;51.660;5.616;2023-04-01T17:44:57;4.05;;;3.33;;
58196;SDS011;43999;51.660;5.616;2023-04-01T17:50:53;7.88;;;6.65;;
58196;SDS011;43999;51.660;5.616;2023-04-01T18:03:55;7.20;;;5.63;;
58196;SDS011;43999;51.660;5.616;2023-04-01T18:24:56;6.95;;;5.55;;
58196;SDS011;43999;51.660;5.616;2023-04-01T18:27:45;6.63;;;5.93;;
58196;SDS011;43999;51.660;5.616;2023-04-01T18:30:41;5.75;;;5.15;;
58196;SDS011;43999;51.660;5.616;2023-04-01T18:36:39;7.63;;;6.53;;
58196;SDS011;43999;51.660;5.616;2023-04-01T18:39:42;7.90;;;7.07;;
58196;SDS011;43999;51.660;5.616;2023-04-01T18:45:34;6.47;;;5.80;;
58196;SDS011;43999;51.660;5.616;2023-04-01T18:48:30;6.05;;;5.32;;
58196;SDS011;43999;51.660;5.616;2023-04-01T18:57:42;9.43;;;7.75;;
58196;SDS011;43999;51.660;5.616;2023-04-01T19:00:40;9.93;;;8.32;;
58196;SDS011;43999;51.660;5.616;2023-04-01T19:03:45;9.52;;;7.90;;
58196;SDS011;43999;51.660;5.616;2023-04-01T19:09:25;9.25;;;4.82;;
58196;SDS011;43999;51.660;5.616;2023-04-01T19:27:42;8.85;;;7.85;;
58196;SDS011;43999;51.660;5.616;2023-04-01T19:30:32;6.97;;;6.30;;
58196;SDS011;43999;51.660;5.616;2023-04-01T19:36:25;9.50;;;6.93;;
58196;SDS011;43999;51.660;5.616;2023-04-01T19:39:32;7.63;;;6.20;;
58196;SDS011;43999;51.660;5.616;2023-04-01T19:48:27;11.23;;;9.65;;
58196;SDS011;43999;51.660;5.616;2023-04-01T20:00:57;8.95;;;7.25;;
58196;SDS011;43999;51.660;5.616;2023-04-01T20:14:47;11.95;;;10.68;;
58196;SDS011;43999;51.660;5.616;2023-04-01T20:25:15;10.23;;;9.10;;
58196;SDS011;43999;51.660;5.616;2023-04-01T20:27:58;11.48;;;9.45;;
58196;SDS011;43999;51.660;5.616;2023-04-01T20:33:37;11.48;;;8.80;;
58196;SDS011;43999;51.660;5.616;2023-04-01T20:48:56;11.10;;;8.50;;
58196;SDS011;43999;51.660;5.616;2023-04-01T20:58:28;7.97;;;6.82;;
58196;SDS011;43999;51.660;5.616;2023-04-01T21:02:26;9.55;;;7.25;;
58196;SDS011;43999;51.660;5.616;2023-04-01T21:08:44;8.95;;;8.10;;
58196;SDS011;43999;51.660;5.616;2023-04-01T21:15:30;12.68;;;10.18;;
58196;SDS011;43999;51.660;5.616;2023-04-01T21:25:03;13.63;;;10.20;;
58196;SDS011;43999;51.660;5.616;2023-04-01T21:37:52;9.23;;;8.23;;
58196;SDS011;43999;51.660;5.616;2023-04-01T22:03:30;12.88;;;11.30;;
58196;SDS011;43999;51.660;5.616;2023-04-01T22:09:00;13.15;;;10.68;;
58196;SDS011;43999;51.660;5.616;2023-04-01T22:14:52;13.82;;;11.07;;
58196;SDS011;43999;51.660;5.616;2023-04-01T22:17:52;11.45;;;10.27;;
58196;SDS011;43999;51.660;5.616;2023-04-01T22:23:33;12.20;;;10.63;;
58196;SDS011;43999;51.660;5.616;2023-04-01T22:32:51;12.50;;;11.20;;
58196;SDS011;43999;51.660;5.616;2023-04-01T22:35:38;9.88;;;8.80;;
58196;SDS011;43999;51.660;5.616;2023-04-01T22:41:46;13.45;;;11.55;;
58196;SDS011;43999;51.660;5.616;2023-04-01T22:48:46;11.38;;;10.00;;
58196;SDS011;43999;51.660;5.616;2023-04-01T22:55:13;11.77;;;10.52;;
58196;SDS011;43999;51.660;5.616;2023-04-01T22:57:54;11.60;;;10.43;;
58196;SDS011;43999;51.660;5.616;2023-04-01T23:00:35;13.90;;;11.57;;
58196;SDS011;43999;51.660;5.616;2023-04-01T23:03:16;11.75;;;10.15;;
58196;SDS011;43999;51.660;5.616;2023-04-01T23:06:03;10.00;;;8.98;;
58196;SDS011;43999;51.660;5.616;2023-04-01T23:11:50;9.32;;;8.43;;
58196;SDS011;43999;51.660;5.616;2023-04-01T23:15:16;12.57;;;10.60;;
58196;SDS011;43999;51.660;5.616;2023-04-01T23:23:32;8.60;;;7.70;;
58196;SDS011;43999;51.660;5.616;2023-04-01T23:26:29;8.52;;;7.38;;
58196;SDS011;43999;51.660;5.616;2023-04-01T23:29:14;10.90;;;8.52;;
58196;SDS011;43999;51.660;5.616;2023-04-01T23:31:45;10.27;;;8.90;;
58196;SDS011;43999;51.660;5.616;2023-04-01T23:34:50;9.95;;;8.20;;
58196;SDS011;43999;51.660;5.616;2023-04-01T23:37:24;10.65;;;8.88;;
58196;SDS011;43999;51.660;5.616;2023-04-01T23:39:57;11.25;;;9.63;;
58196;SDS011;43999;51.660;5.616;2023-04-01T23:42:28;10.13;;;9.13;;
58196;SDS011;43999;51.660;5.616;2023-04-01T23:45:16;9.63;;;8.68;;
58196;SDS011;43999;51.660;5.616;2023-04-01T23:47:47;11.63;;;10.15;;
58196;SDS011;43999;51.660;5.616;2023-04-01T23:50:21;9.55;;;8.55;;
58196;SDS011;43999;51.660;5.616;2023-04-01T23:53:00;9.88;;;8.48;;
58196;SDS011;43999;51.660;5.616;2023-04-01T23:55:43;11.20;;;10.10;;
